createdAt,value
2024-01-24T00:02:26.138Z,101560.13
2024-01-24T00:04:53.307Z,101542.03
2024-01-24T00:07:20.257Z,101535.25
2024-01-24T00:09:47.251Z,101535.69
2024-01-24T00:12:14.417Z,101514.19
2024-01-24T00:14:41.371Z,101546.47
2024-01-24T00:17:08.320Z,101533.25
2024-01-24T00:19:35.473Z,101529.53
2024-01-24T00:22:02.454Z,101507.47
2024-01-24T00:24:29.504Z,101556.19
2024-01-24T00:26:56.563Z,101506.16
2024-01-24T00:29:23.497Z,101536.22
2024-01-24T00:31:50.471Z,101536.50
2024-01-24T00:34:17.830Z,101511.56
2024-01-24T00:36:44.874Z,101499.38
2024-01-24T00:39:12.166Z,101531.56
2024-01-24T00:41:43.186Z,101536.69
2024-01-24T00:44:10.426Z,101543.28
2024-01-24T00:46:37.275Z,101531.66
2024-01-24T00:49:04.822Z,101506.66
2024-01-24T00:51:31.771Z,101531.84
2024-01-24T00:53:59.112Z,101511.59
2024-01-24T00:56:26.032Z,101518.91
2024-01-24T00:58:53.034Z,101524.41
2024-01-24T01:01:21.114Z,101491.00
2024-01-24T01:03:48.460Z,101525.44
2024-01-24T01:06:16.108Z,101529.63
2024-01-24T01:08:43.449Z,101509.81
2024-01-24T01:11:10.495Z,101541.25
2024-01-24T01:13:37.439Z,101504.75
2024-01-24T01:16:04.930Z,101529.28
2024-01-24T01:18:31.922Z,101531.09
2024-01-24T01:20:58.841Z,101536.47
2024-01-24T01:23:25.809Z,101522.59
2024-01-24T01:25:53.726Z,101515.59
2024-01-24T01:28:20.653Z,101525.84
2024-01-24T01:30:47.661Z,101519.88
2024-01-24T01:33:14.833Z,101518.78
2024-01-24T01:35:41.812Z,101528.06
2024-01-24T01:38:08.788Z,101523.34
2024-01-24T01:40:35.646Z,101517.19
2024-01-24T01:43:02.589Z,101520.59
2024-01-24T01:45:29.605Z,101517.88
2024-01-24T01:47:58.694Z,101504.03
2024-01-24T01:50:26.972Z,101513.81
2024-01-24T01:52:54.023Z,101514.59
2024-01-24T01:55:21.138Z,101519.84
2024-01-24T01:57:49.054Z,101526.09
2024-01-24T02:00:22.714Z,101530.22
2024-01-24T02:02:50.093Z,101522.59
2024-01-24T02:05:18.036Z,101501.16
2024-01-24T02:07:45.696Z,101530.78
2024-01-24T02:10:16.304Z,101527.03
2024-01-24T02:12:43.344Z,101530.72
2024-01-24T02:15:11.321Z,101541.75
2024-01-24T02:17:38.435Z,101540.59
2024-01-24T02:20:09.359Z,101548.44
2024-01-24T02:22:36.244Z,101535.59
2024-01-24T02:25:03.940Z,101537.78
2024-01-24T02:27:30.971Z,101535.91
2024-01-24T02:29:59.125Z,101534.66
2024-01-24T02:32:26.144Z,101533.56
2024-01-24T02:34:53.161Z,101545.50
2024-01-24T02:37:22.056Z,101537.69
2024-01-24T02:39:49.223Z,101529.47
2024-01-24T02:42:16.799Z,101531.34
2024-01-24T02:44:44.047Z,101527.41
2024-01-24T02:47:11.074Z,101528.34
2024-01-24T02:49:38.156Z,101521.38
2024-01-24T02:52:05.577Z,101529.09
2024-01-24T02:54:32.517Z,101520.63
2024-01-24T02:56:59.517Z,101497.94
2024-01-24T02:59:27.106Z,101514.38
2024-01-24T03:01:54.177Z,101516.00
2024-01-24T03:04:21.408Z,101502.72
2024-01-24T03:06:48.542Z,101493.00
2024-01-24T03:09:15.669Z,101511.91
2024-01-24T03:11:43.029Z,101518.94
2024-01-24T03:14:10.818Z,101505.84
2024-01-24T03:16:37.687Z,101502.34
2024-01-24T03:19:06.964Z,101523.44
2024-01-24T03:21:34.188Z,101521.00
2024-01-24T03:24:01.546Z,101498.91
2024-01-24T03:26:28.519Z,101534.84
2024-01-24T03:28:55.477Z,101536.66
2024-01-24T03:31:22.373Z,101525.44
2024-01-24T03:33:49.721Z,101496.22
2024-01-24T03:36:16.963Z,101527.78
2024-01-24T03:38:44.917Z,101529.19
2024-01-24T03:41:11.921Z,101536.03
2024-01-24T03:43:41.997Z,101526.47
2024-01-24T03:46:08.996Z,101531.91
2024-01-24T03:48:36.208Z,101523.38
2024-01-24T03:51:03.571Z,101527.59
2024-01-24T03:53:30.447Z,101490.81
2024-01-24T03:55:57.382Z,101529.19
2024-01-24T03:58:24.313Z,101523.09
2024-01-24T04:00:54.213Z,101525.81
2024-01-24T04:03:21.092Z,101520.28
2024-01-24T04:05:48.141Z,101515.25
2024-01-24T04:08:15.375Z,101519.50
2024-01-24T04:10:42.374Z,101490.50
2024-01-24T04:13:09.364Z,101515.59
2024-01-24T04:15:36.351Z,101513.59
2024-01-24T04:18:03.411Z,101523.25
2024-01-24T04:20:30.415Z,101521.38
2024-01-24T04:22:57.313Z,101518.56
2024-01-24T04:25:24.244Z,101523.34
2024-01-24T04:27:51.495Z,101530.66
2024-01-24T04:30:18.674Z,101529.44
2024-01-24T04:32:45.884Z,101537.44
2024-01-24T04:35:13.293Z,101525.06
2024-01-24T04:37:40.163Z,101543.03
2024-01-24T04:40:08.127Z,101545.94
2024-01-24T04:42:35.355Z,101545.53
2024-01-24T04:45:02.224Z,101557.19
2024-01-24T04:47:29.366Z,101528.53
2024-01-24T04:49:56.460Z,101523.38
2024-01-24T04:52:23.446Z,101552.81
2024-01-24T04:54:50.415Z,101549.94
2024-01-24T04:57:17.421Z,101555.53
2024-01-24T04:59:50.214Z,101553.75
2024-01-24T05:02:23.041Z,101560.16
2024-01-24T05:04:50.183Z,101557.13
2024-01-24T05:07:17.257Z,101555.69
2024-01-24T05:09:44.735Z,101551.72
2024-01-24T05:12:12.064Z,101550.13
2024-01-24T05:14:38.981Z,101557.81
2024-01-24T05:17:05.972Z,101554.06
2024-01-24T05:19:34.295Z,101556.09
2024-01-24T05:22:01.474Z,101544.06
2024-01-24T05:24:28.474Z,101557.00
2024-01-24T05:26:55.617Z,101556.97
2024-01-24T05:29:22.522Z,101558.84
2024-01-24T05:31:49.466Z,101565.31
2024-01-24T05:34:16.584Z,101570.56
2024-01-24T05:36:43.603Z,101572.34
2024-01-24T05:39:10.602Z,101576.25
2024-01-24T05:41:37.506Z,101572.09
2024-01-24T05:44:04.752Z,101577.13
2024-01-24T05:46:32.343Z,101581.00
2024-01-24T05:49:02.392Z,101581.09
2024-01-24T05:51:30.108Z,101578.88
2024-01-24T05:53:57.253Z,101578.13
2024-01-24T05:56:24.875Z,101577.16
2024-01-24T05:58:51.862Z,101576.50
2024-01-24T06:01:19.055Z,101572.91
2024-01-24T06:03:46.452Z,101588.38
2024-01-24T06:06:13.960Z,101584.56
2024-01-24T06:08:41.411Z,101584.13
2024-01-24T06:11:08.402Z,101592.38
2024-01-24T06:13:35.967Z,101586.38
2024-01-24T06:16:03.234Z,101589.44
2024-01-24T06:18:30.246Z,101573.72
2024-01-24T06:20:57.299Z,101580.94
2024-01-24T06:23:24.342Z,101574.34
2024-01-24T06:25:51.293Z,101586.47
2024-01-24T06:28:18.308Z,101586.78
2024-01-24T06:30:45.577Z,101584.28
2024-01-24T06:33:14.528Z,101599.16
2024-01-24T06:35:41.639Z,101594.66
2024-01-24T06:38:08.572Z,101593.94
2024-01-24T06:40:35.575Z,101600.50
2024-01-24T06:43:02.635Z,101592.69
2024-01-24T06:45:29.918Z,101594.25
2024-01-24T06:47:56.906Z,101592.84
2024-01-24T06:50:25.494Z,101591.84
2024-01-24T06:52:52.504Z,101576.91
2024-01-24T06:55:19.589Z,101597.16
2024-01-24T06:57:46.812Z,101598.09
2024-01-24T07:00:14.220Z,101595.81
2024-01-24T07:02:41.186Z,101599.75
2024-01-24T07:05:08.575Z,101600.72
2024-01-24T07:07:37.588Z,101596.38
2024-01-24T07:10:04.928Z,101596.28
2024-01-24T07:12:31.848Z,101597.94
2024-01-24T07:14:58.813Z,101590.13
2024-01-24T07:17:25.976Z,101598.44
2024-01-24T07:19:53.084Z,101604.03
2024-01-24T07:22:20.135Z,101608.94
2024-01-24T07:24:47.153Z,101615.06
2024-01-24T07:27:14.135Z,101612.84
2024-01-24T07:29:41.066Z,101615.38
2024-01-24T07:32:07.983Z,101618.94
2024-01-24T07:34:35.024Z,101614.22
2024-01-24T07:37:02.265Z,101624.63
2024-01-24T07:39:30.017Z,101626.19
2024-01-24T07:41:57.622Z,101631.91
2024-01-24T07:44:25.210Z,101612.00
2024-01-24T07:46:52.228Z,101629.69
2024-01-24T07:49:19.425Z,101625.94
2024-01-24T07:51:48.474Z,101628.50
2024-01-24T07:54:20.370Z,101626.91
2024-01-24T07:56:48.137Z,101628.69
2024-01-24T07:59:17.834Z,101619.88
2024-01-24T08:01:49.695Z,101621.47
2024-01-24T08:04:18.474Z,101633.09
2024-01-24T08:06:50.767Z,101621.28
2024-01-24T08:09:19.560Z,101629.59
2024-01-24T08:11:46.692Z,101622.66
2024-01-24T08:14:14.119Z,101612.03
2024-01-24T08:16:56.478Z,101626.69
2024-01-24T08:19:23.582Z,101624.16
2024-01-24T08:21:50.639Z,101587.13
2024-01-24T08:24:17.603Z,101589.19
2024-01-24T08:26:46.299Z,101610.06
2024-01-24T08:29:22.013Z,101608.97
2024-01-24T08:31:53.177Z,101608.75
2024-01-24T08:34:20.287Z,101602.06
2024-01-24T08:36:47.443Z,101609.69
2024-01-24T08:39:16.257Z,101579.69
2024-01-24T08:41:43.266Z,101604.56
2024-01-24T08:44:10.301Z,101608.56
2024-01-24T08:46:37.249Z,101602.34
2024-01-24T08:49:04.292Z,101603.22
2024-01-24T08:51:33.201Z,101587.94
2024-01-24T08:54:01.281Z,101597.75
2024-01-24T08:56:28.327Z,101595.47
2024-01-24T08:58:55.984Z,101587.97
2024-01-24T09:01:23.448Z,101591.63
2024-01-24T09:03:52.287Z,101593.59
2024-01-24T09:06:21.756Z,101571.56
2024-01-24T09:08:55.628Z,101590.22
2024-01-24T09:11:27.318Z,101589.56
2024-01-24T09:13:58.344Z,101568.91
2024-01-24T09:16:25.746Z,101578.91
2024-01-24T09:18:52.910Z,101578.63
2024-01-24T09:21:20.241Z,101560.13
2024-01-24T09:23:51.043Z,101579.44
2024-01-24T09:26:18.261Z,101570.91
2024-01-24T09:28:45.198Z,101570.94
2024-01-24T09:31:12.088Z,101574.06
2024-01-24T09:33:40.219Z,101567.72
2024-01-24T09:36:07.698Z,101567.50
2024-01-24T09:38:34.743Z,101562.81
2024-01-24T09:41:10.470Z,101560.59
2024-01-24T09:43:40.243Z,101561.81
2024-01-24T09:46:13.745Z,101560.47
2024-01-24T09:48:43.225Z,101558.22
2024-01-24T09:51:10.551Z,101553.72
2024-01-24T09:53:40.763Z,101556.22
2024-01-24T09:56:08.992Z,101548.25
2024-01-24T09:58:35.987Z,101543.72
2024-01-24T10:01:05.956Z,101544.91
2024-01-24T10:03:36.753Z,101545.31
2024-01-24T10:06:10.003Z,101541.41
2024-01-24T10:08:37.107Z,101535.16
2024-01-24T10:11:04.193Z,101542.28
2024-01-24T10:13:32.747Z,101544.75
2024-01-24T10:16:01.246Z,101536.91
2024-01-24T10:18:28.497Z,101536.78
2024-01-24T10:20:56.112Z,101536.09
2024-01-24T10:23:23.587Z,101538.16
2024-01-24T10:25:51.082Z,101545.81
2024-01-24T10:28:18.959Z,101536.16
2024-01-24T10:30:50.320Z,101521.81
2024-01-24T10:33:19.455Z,101541.00
2024-01-24T10:35:47.203Z,101514.19
2024-01-24T10:38:16.129Z,101532.56
2024-01-24T10:40:43.390Z,101522.97
2024-01-24T10:43:13.710Z,101520.19
2024-01-24T10:45:46.206Z,101519.31
2024-01-24T10:48:13.555Z,101498.09
2024-01-24T10:50:41.845Z,101515.78
2024-01-24T10:53:10.895Z,101512.03
2024-01-24T10:55:39.451Z,101488.16
2024-01-24T10:58:11.024Z,101513.38
2024-01-24T11:00:41.033Z,101503.16
2024-01-24T11:03:09.368Z,101497.25
2024-01-24T11:05:46.743Z,101501.72
2024-01-24T11:08:25.409Z,101497.53
2024-01-24T11:11:04.623Z,101471.47
2024-01-24T11:13:36.184Z,101496.03
2024-01-24T11:16:30.240Z,101491.44
2024-01-24T11:19:01.381Z,101491.03
2024-01-24T11:21:32.175Z,101488.34
2024-01-24T11:24:00.602Z,101481.84
2024-01-24T11:26:27.476Z,101468.16
2024-01-24T11:29:14.669Z,101462.09
2024-01-24T11:31:43.989Z,101451.38
2024-01-24T11:34:13.201Z,101453.13
2024-01-24T11:36:52.798Z,101447.59
2024-01-24T11:39:32.339Z,101442.16
2024-01-24T11:42:27.534Z,101427.78
2024-01-24T11:44:54.687Z,101423.56
2024-01-24T11:47:25.345Z,101418.94
2024-01-24T11:49:52.709Z,101412.69
2024-01-24T11:52:23.052Z,101407.91
2024-01-24T11:54:53.927Z,101408.81
2024-01-24T11:57:21.151Z,101396.25
2024-01-24T11:59:48.250Z,101399.63
2024-01-24T12:02:15.962Z,101379.25
2024-01-24T12:04:42.938Z,101384.38
2024-01-24T12:07:10.820Z,101386.22
2024-01-24T12:09:37.818Z,101381.78
2024-01-24T12:12:05.178Z,101373.94
2024-01-24T12:14:32.800Z,101366.84
2024-01-24T12:17:00.267Z,101367.84
2024-01-24T12:19:27.583Z,101352.81
2024-01-24T12:21:54.879Z,101352.63
2024-01-24T12:24:23.359Z,101343.75
2024-01-24T12:26:52.278Z,101333.16
2024-01-24T12:29:22.419Z,101330.47
2024-01-24T12:31:50.220Z,101322.75
2024-01-24T12:34:22.848Z,101321.50
2024-01-24T12:36:50.205Z,101324.47
2024-01-24T12:39:26.631Z,101325.47
2024-01-24T12:41:53.723Z,101321.34
2024-01-24T12:44:21.232Z,101326.38
2024-01-24T12:46:57.240Z,101320.28
2024-01-24T12:49:26.363Z,101310.56
2024-01-24T12:51:54.960Z,101317.31
2024-01-24T12:54:23.145Z,101308.81
2024-01-24T12:56:51.239Z,101307.56
2024-01-24T12:59:19.088Z,101299.31
2024-01-24T13:01:46.315Z,101303.81
2024-01-24T13:04:13.414Z,101301.75
2024-01-24T13:06:41.759Z,101286.94
2024-01-24T13:09:10.021Z,101287.59
2024-01-24T13:11:37.059Z,101279.50
2024-01-24T13:14:04.095Z,101270.94
2024-01-24T13:16:31.140Z,101271.97
2024-01-24T13:18:58.483Z,101270.13
2024-01-24T13:21:26.109Z,101258.88
2024-01-24T13:23:53.071Z,101255.66
2024-01-24T13:26:20.272Z,101258.56
2024-01-24T13:28:47.352Z,101255.84
2024-01-24T13:31:14.404Z,101255.22
2024-01-24T13:33:42.314Z,101255.63
2024-01-24T13:36:10.816Z,101254.50
2024-01-24T13:38:38.335Z,101248.63
2024-01-24T13:41:05.449Z,101267.19
2024-01-24T13:43:32.650Z,101257.19
2024-01-24T13:45:59.608Z,101263.84
2024-01-24T13:48:27.469Z,101263.88
2024-01-24T13:50:56.425Z,101257.53
2024-01-24T13:53:24.363Z,101263.63
2024-01-24T13:55:51.353Z,101257.09
2024-01-24T13:58:19.526Z,101258.22
2024-01-24T14:00:46.619Z,101253.25
2024-01-24T14:03:13.628Z,101251.56
2024-01-24T14:05:42.809Z,101248.16
2024-01-24T14:08:10.086Z,101250.44
2024-01-24T14:10:37.212Z,101246.31
2024-01-24T14:13:04.753Z,101235.03
2024-01-24T14:15:34.982Z,101241.22
2024-01-24T14:18:04.599Z,101239.94
2024-01-24T14:20:31.855Z,101243.59
2024-01-24T14:22:58.811Z,101230.63
2024-01-24T14:25:25.793Z,101229.03
2024-01-24T14:27:52.845Z,101221.50
2024-01-24T14:30:19.990Z,101227.03
2024-01-24T14:32:47.115Z,101230.34
2024-01-24T14:35:20.077Z,101230.16
2024-01-24T14:37:47.335Z,101230.63
2024-01-24T14:40:17.160Z,101230.63
2024-01-24T14:42:44.270Z,101238.53
2024-01-24T14:45:11.523Z,101228.63
2024-01-24T14:47:38.772Z,101231.38
2024-01-24T14:50:08.893Z,101226.53
2024-01-24T14:52:36.360Z,101226.59
2024-01-24T14:55:04.284Z,101221.63
2024-01-24T14:57:33.587Z,101222.22
2024-01-24T15:00:01.506Z,101218.19
2024-01-24T15:02:28.804Z,101228.06
2024-01-24T15:04:56.012Z,101218.38
2024-01-24T15:07:23.538Z,101224.72
2024-01-24T15:09:50.968Z,101225.03
2024-01-24T15:12:18.039Z,101228.13
2024-01-24T15:14:44.910Z,101230.31
2024-01-24T15:17:11.901Z,101224.38
2024-01-24T15:19:47.191Z,101220.56
2024-01-24T15:22:17.469Z,101222.38
2024-01-24T15:24:45.316Z,101219.91
2024-01-24T15:27:12.408Z,101221.06
2024-01-24T15:29:40.347Z,101216.81
2024-01-24T15:32:07.836Z,101226.13
2024-01-24T15:34:35.502Z,101227.16
2024-01-24T15:37:02.711Z,101209.44
2024-01-24T15:39:29.991Z,101224.53
2024-01-24T15:42:01.429Z,101226.25
2024-01-24T15:44:29.045Z,101217.13
2024-01-24T15:46:58.760Z,101222.31
2024-01-24T15:49:25.790Z,101223.00
2024-01-24T15:51:53.017Z,101196.47
2024-01-24T15:54:20.130Z,101221.47
2024-01-24T15:56:47.738Z,101221.31
2024-01-24T15:59:14.861Z,101223.97
2024-01-24T16:01:49.372Z,101206.84
2024-01-24T16:04:20.549Z,101216.38
2024-01-24T16:06:47.585Z,101218.53
2024-01-24T16:09:15.022Z,101215.34
2024-01-24T16:11:42.197Z,101210.31
2024-01-24T16:14:09.427Z,101223.69
2024-01-24T16:16:36.401Z,101228.50
2024-01-24T16:19:03.559Z,101228.19
2024-01-24T16:21:30.627Z,101216.06
2024-01-24T16:23:57.583Z,101231.53
2024-01-24T16:26:24.561Z,101224.72
2024-01-24T16:28:51.510Z,101234.94
2024-01-24T16:31:19.484Z,101237.38
2024-01-24T16:33:46.564Z,101202.84
2024-01-24T16:36:13.834Z,101239.84
2024-01-24T16:38:41.045Z,101231.63
2024-01-24T16:41:09.741Z,101215.56
2024-01-24T16:43:39.005Z,101240.38
2024-01-24T16:46:07.024Z,101235.19
2024-01-24T16:48:34.342Z,101215.84
2024-01-24T16:51:01.562Z,101238.19
2024-01-24T16:53:29.000Z,101231.78
2024-01-24T16:55:55.995Z,101232.41
2024-01-24T16:58:22.894Z,101228.59
2024-01-24T17:00:50.034Z,101234.75
2024-01-24T17:03:17.124Z,101228.00
2024-01-24T17:05:44.116Z,101234.34
2024-01-24T17:08:11.286Z,101225.34
2024-01-24T17:10:38.214Z,101230.97
2024-01-24T17:13:05.308Z,101233.91
2024-01-24T17:15:32.245Z,101234.16
2024-01-24T17:18:02.971Z,101235.81
2024-01-24T17:20:30.166Z,101225.75
2024-01-24T17:22:58.150Z,101240.84
2024-01-24T17:25:25.150Z,101224.81
2024-01-24T17:27:52.165Z,101237.91
2024-01-24T17:30:19.846Z,101232.38
2024-01-24T17:32:46.870Z,101231.66
2024-01-24T17:35:13.921Z,101239.63
2024-01-24T17:37:40.897Z,101249.56
2024-01-24T17:40:09.084Z,101242.91
2024-01-24T17:42:36.415Z,101243.19
2024-01-24T17:45:03.608Z,101240.28
2024-01-24T17:47:31.587Z,101235.56
2024-01-24T17:50:00.260Z,101248.38
2024-01-24T17:52:27.406Z,101242.00
2024-01-24T17:54:57.503Z,101240.91
2024-01-24T17:57:24.505Z,101240.66
2024-01-24T17:59:51.722Z,101224.13
2024-01-24T18:02:18.711Z,101221.97
2024-01-24T18:04:45.700Z,101230.00
2024-01-24T18:07:12.883Z,101235.00
2024-01-24T18:09:39.980Z,101241.06
2024-01-24T18:12:07.478Z,101244.88
2024-01-24T18:14:34.316Z,101243.59
2024-01-24T18:17:01.252Z,101252.03
2024-01-24T18:19:31.878Z,101247.59
2024-01-24T18:21:59.482Z,101250.44
2024-01-24T18:24:26.532Z,101240.06
2024-01-24T18:26:54.258Z,101231.63
2024-01-24T18:29:21.223Z,101246.81
2024-01-24T18:31:48.839Z,101255.75
2024-01-24T18:34:17.418Z,101247.53
2024-01-24T18:36:44.553Z,101235.75
2024-01-24T18:39:11.505Z,101257.47
2024-01-24T18:41:38.729Z,101260.63
2024-01-24T18:44:05.834Z,101256.50
2024-01-24T18:46:33.635Z,101243.72
2024-01-24T18:49:04.309Z,101242.69
2024-01-24T18:51:31.660Z,101228.06
2024-01-24T18:53:58.643Z,101274.88
2024-01-24T18:56:25.863Z,101266.22
2024-01-24T18:58:52.901Z,101268.38
2024-01-24T19:01:20.567Z,101248.81
2024-01-24T19:03:55.973Z,101267.34
2024-01-24T19:06:24.049Z,101272.44
2024-01-24T19:08:51.148Z,101269.81
2024-01-24T19:11:18.389Z,101235.91
2024-01-24T19:13:45.597Z,101268.66
2024-01-24T19:16:12.890Z,101264.38
2024-01-24T19:18:40.104Z,101251.84
2024-01-24T19:21:07.111Z,101227.53
2024-01-24T19:23:34.035Z,101259.47
2024-01-24T19:26:01.074Z,101263.28
2024-01-24T19:28:27.953Z,101258.19
2024-01-24T19:30:55.076Z,101232.66
2024-01-24T19:33:22.046Z,101247.72
2024-01-24T19:35:48.939Z,101242.19
2024-01-24T19:38:16.060Z,101210.00
2024-01-24T19:40:43.033Z,101206.84
2024-01-24T19:43:10.057Z,101225.25
2024-01-24T19:45:37.575Z,101245.28
2024-01-24T19:48:05.420Z,101244.41
2024-01-24T19:50:32.522Z,101248.28
2024-01-24T19:53:02.491Z,101246.34
2024-01-24T19:55:29.584Z,101253.97
2024-01-24T19:57:56.628Z,101245.38
2024-01-24T20:00:24.436Z,101245.31
2024-01-24T20:02:51.616Z,101253.25
2024-01-24T20:05:19.021Z,101234.53
2024-01-24T20:07:47.134Z,101248.78
2024-01-24T20:10:14.393Z,101247.56
2024-01-24T20:12:41.459Z,101252.63
2024-01-24T20:15:09.092Z,101242.38
2024-01-24T20:17:36.140Z,101241.50
2024-01-24T20:20:03.805Z,101245.63
2024-01-24T20:22:30.766Z,101236.91
2024-01-24T20:24:57.661Z,101235.59
2024-01-24T20:27:24.877Z,101239.69
2024-01-24T20:29:53.195Z,101239.16
2024-01-24T20:32:21.191Z,101239.41
2024-01-24T20:34:49.751Z,101232.56
2024-01-24T20:37:18.799Z,101237.19
2024-01-24T20:39:45.932Z,101239.72
2024-01-24T20:42:14.878Z,101237.16
2024-01-24T20:44:44.536Z,101245.97
2024-01-24T20:47:15.688Z,101231.75
2024-01-24T20:49:44.063Z,101233.53
2024-01-24T20:52:11.094Z,101234.94
2024-01-24T20:54:38.134Z,101215.28
2024-01-24T20:57:05.388Z,101230.66
2024-01-24T20:59:32.668Z,101240.44
2024-01-24T21:02:00.823Z,101225.09
2024-01-24T21:04:28.327Z,101239.59
2024-01-24T21:06:55.585Z,101233.34
2024-01-24T21:09:22.638Z,101237.00
2024-01-24T21:11:49.658Z,101235.16
2024-01-24T21:14:16.724Z,101229.47
2024-01-24T21:16:44.538Z,101236.56
2024-01-24T21:19:17.570Z,101234.66
2024-01-24T21:21:45.464Z,101245.59
2024-01-24T21:24:14.012Z,101236.94
2024-01-24T21:26:41.417Z,101207.22
2024-01-24T21:29:08.690Z,101221.22
2024-01-24T21:31:35.611Z,101207.72
2024-01-24T21:34:02.910Z,101228.81
2024-01-24T21:36:29.982Z,101226.06
2024-01-24T21:38:56.924Z,101223.13
2024-01-24T21:41:24.385Z,101226.53
2024-01-24T21:43:51.514Z,101226.25
2024-01-24T21:46:18.725Z,101223.50
2024-01-24T21:48:45.793Z,101199.84
2024-01-24T21:51:12.816Z,101212.38
2024-01-24T21:53:39.683Z,101220.69
2024-01-24T21:56:06.924Z,101218.09
2024-01-24T21:58:36.233Z,101215.19
2024-01-24T22:01:03.245Z,101226.06
2024-01-24T22:03:30.267Z,101211.25
2024-01-24T22:05:57.317Z,101215.41
2024-01-24T22:08:24.356Z,101213.19
2024-01-24T22:10:51.345Z,101207.13
2024-01-24T22:13:18.354Z,101217.94
2024-01-24T22:15:45.415Z,101202.38
2024-01-24T22:18:13.862Z,101216.81
2024-01-24T22:20:40.936Z,101219.19
2024-01-24T22:23:08.735Z,101220.06
2024-01-24T22:25:35.749Z,101214.22
2024-01-24T22:28:02.692Z,101219.59
2024-01-24T22:30:29.789Z,101201.31
2024-01-24T22:32:56.845Z,101215.78
2024-01-24T22:35:23.838Z,101218.38
2024-01-24T22:37:50.826Z,101215.59
2024-01-24T22:40:18.580Z,101226.88
2024-01-24T22:42:45.784Z,101222.25
2024-01-24T22:45:14.931Z,101212.22
2024-01-24T22:47:41.912Z,101218.38
2024-01-24T22:50:10.073Z,101210.34
2024-01-24T22:52:37.150Z,101214.72
2024-01-24T22:55:04.510Z,101211.81
2024-01-24T22:57:31.485Z,101213.66
2024-01-24T22:59:58.833Z,101213.16
2024-01-24T23:02:26.732Z,101222.78
2024-01-24T23:04:56.116Z,101220.06
2024-01-24T23:07:23.293Z,101217.53
2024-01-24T23:09:50.373Z,101223.34
2024-01-24T23:12:18.075Z,101217.84
2024-01-24T23:14:45.286Z,101217.94
2024-01-24T23:17:12.257Z,101219.19
2024-01-24T23:19:39.392Z,101218.88
2024-01-24T23:22:06.513Z,101230.44
2024-01-24T23:24:33.433Z,101207.38
2024-01-24T23:27:00.452Z,101223.22
2024-01-24T23:29:27.385Z,101206.22
2024-01-24T23:31:54.250Z,101208.22
2024-01-24T23:34:21.369Z,101195.28
2024-01-24T23:36:48.455Z,101218.56
2024-01-24T23:39:15.423Z,101220.19
2024-01-24T23:41:42.597Z,101214.91
2024-01-24T23:44:11.676Z,101210.13
2024-01-24T23:46:38.868Z,101172.06
2024-01-24T23:49:06.148Z,101202.97
2024-01-24T23:51:36.226Z,101202.41
2024-01-24T23:54:04.037Z,101197.63
2024-01-24T23:56:30.961Z,101167.03
2024-01-24T23:58:57.903Z,101182.88
